Hatley, Wisconsin
Current Conditions -  °F | °C
As of 10:54 PM on Monday 20 Oct 2014 (Local Time) from KAUW Reporting Station
Light Rain Light Rain  
Wind Chill: 46°   Ceiling: 2200
Heat Index: 46°   Visibility: 10mi
Dew Point: 40°   Wind: 3mph
Humidity: 79%   Direction: 10°N
Pressure: 30.05"   Gusts: NA
Location:  44.89°N, 89.34°W
Report Text: KAUW 210354Z AUTO 01003KT 10SM -RA OVC022 08/04 A3005 RMK AO2 RAB47 SLP187 P0000 T00780044
Loading
Personal Weather Stations






























Interactive Weather Map
Tropical Storm Tracking
New forecast layout! Learn more

10-Day Weather Forecast

Advertisements
Track Severe Weather on mobile